Time;durP1;ratioP1;P1;durP2;ratioP2;P2;SDS_P1;SDS_P2;PMS_P1;PMS_P2;Temp;Humidity;BMP_temperature;BMP_pressure;BME280_temperature;BME280_humidity;BME280_pressure;Samples;Min_cycle;Max_cycle;Signal;HPM_P1;HPM_P2
2021/09/17 00:01:06;;;;;;;;;;;;;;;;;;5071581;28;19928;-64
2021/09/17 00:03:33;;;;;;;;;;;;;;;;;;5071616;28;19925;-65
2021/09/17 00:06:00;;;;;;;;;;;;;;;;;;5071957;28;20290;-65
2021/09/17 00:08:27;;;;;;;;;;;;;;;;;;5071700;28;19931;-65
2021/09/17 00:10:54;;;;;;;;;;;;;;;;;;5071447;28;19931;-65
2021/09/17 00:13:21;;;;;;;;;;;;;;;;;;5071552;28;19928;-64
2021/09/17 00:15:47;;;;;;;;;;;;;;;;;;5071593;28;20304;-65
2021/09/17 00:18:14;;;;;;;;;;;;;;;;;;5071752;28;19924;-64
2021/09/17 00:20:41;;;;;;;;;;;;;;;;;;5070804;28;19924;-65
2021/09/17 00:23:08;;;;;;;;;;;;;;;;;;5071788;28;20281;-63
2021/09/17 00:25:35;;;;;;;;;;;;;;;;;;5071532;28;19931;-64
2021/09/17 00:28:02;;;;;;;;;;;;;;;;;;5071658;28;19924;-64
2021/09/17 00:30:29;;;;;;;;;;;;;;;;;;5071446;28;19931;-65
2021/09/17 00:32:56;;;;;;;;;;;;;;;;;;5071036;28;19931;-64
2021/09/17 00:35:23;;;;;;;;;;;;;;;;;;5071698;28;20308;-64
2021/09/17 00:37:50;;;;;;;;;;;;;;;;;;5071301;28;19931;-64
2021/09/17 00:40:17;;;;;;;;;;;;;;;;;;5070946;28;19929;-69
2021/09/17 00:42:44;;;;;;;;;;;;;;;;;;5070902;28;19925;-65
2021/09/17 00:45:11;;;;;;;;;;;;;;;;;;5071550;28;20300;-64
2021/09/17 00:47:38;;;;;;;;;;;;;;;;;;5071176;28;19931;-64
2021/09/17 00:50:05;;;;;;;;;;;;;;;;;;5071195;28;19925;-64
2021/09/17 00:52:32;;;;;;;;;;;;;;;;;;5071160;28;19925;-64
2021/09/17 00:54:59;;;;;;;;;;;;;;;;;;5070941;28;20329;-63
2021/09/17 00:57:26;;;;;;;;;;;;;;;;;;5071358;28;20024;-65
2021/09/17 00:59:53;;;;;;;;;;;;;;;;;;5073316;28;19932;-64
2021/09/17 01:02:20;;;;;;;;;;;;;;;;;;5074967;28;19924;-64
2021/09/17 01:04:47;;;;;;;;;;;;;;;;;;5071758;28;19932;-65
2021/09/17 01:07:14;;;;;;;;;;;;;;;;;;5075014;28;19936;-64
2021/09/17 01:09:41;;;;;;;;;;;;;;;;;;5074783;28;19924;-64
2021/09/17 01:12:08;;;;;;;;;;;;;;;;;;5075251;28;20315;-64
2021/09/17 01:14:35;;;;;;;;;;;;;;;;;;5075219;28;19925;-64
2021/09/17 01:17:02;;;;;;;;;;;;;;;;;;5074822;28;19928;-64
2021/09/17 01:19:29;;;;;;;;;;;;;;;;;;5075204;28;19931;-65
2021/09/17 01:21:56;;;;;;;;;;;;;;;;;;5074580;28;19924;-65
2021/09/17 01:24:23;;;;;;;;;;;;;;;;;;5075795;28;19924;-65
2021/09/17 01:26:50;;;;;;;;;;;;;;;;;;5074551;28;19925;-65
2021/09/17 01:29:17;;;;;;;;;;;;;;;;;;5074668;28;19970;-65
2021/09/17 01:31:44;;;;;;;;;;;;;;;;;;5074674;28;19931;-65
2021/09/17 01:34:11;;;;;;;;;;;;;;;;;;5074416;28;19924;-65
2021/09/17 01:36:38;;;;;;;;;;;;;;;;;;5074410;28;19935;-65
2021/09/17 01:39:05;;;;;;;;;;;;;;;;;;5074060;28;19924;-65
2021/09/17 01:41:32;;;;;;;;;;;;;;;;;;5070690;28;20378;-65
2021/09/17 01:43:59;;;;;;;;;;;;;;;;;;5072574;28;19932;-65
2021/09/17 01:46:26;;;;;;;;;;;;;;;;;;5074918;28;19928;-64
2021/09/17 01:48:53;;;;;;;;;;;;;;;;;;5074443;28;19925;-64
2021/09/17 01:51:20;;;;;;;;;;;;;;;;;;5073963;28;20369;-64
2021/09/17 01:53:47;;;;;;;;;;;;;;;;;;5074244;28;19925;-65
2021/09/17 01:56:14;;;;;;;;;;;;;;;;;;5074008;28;19924;-64
2021/09/17 01:58:41;;;;;;;;;;;;;;;;;;5074511;28;19925;-65
2021/09/17 02:01:08;;;;;;;;;;;;;;;;;;5073431;28;19928;-65
2021/09/17 02:03:35;;;;;;;;;;;;;;;;;;5073869;28;19932;-65
2021/09/17 02:06:01;;;;;;;;;;;;;;;;;;5073924;28;19932;-66
2021/09/17 02:08:28;;;;;;;;;;;;;;;;;;5074109;28;19924;-65
2021/09/17 02:10:55;;;;;;;;;;;;;;;;;;5072939;28;20402;-65
2021/09/17 02:13:22;;;;;;;;;;;;;;;;;;5073821;28;19948;-65
2021/09/17 02:15:49;;;;;;;;;;;;;;;;;;5073899;28;19930;-63
2021/09/17 02:18:16;;;;;;;;;;;;;;;;;;5072762;28;20406;-63
2021/09/17 02:20:43;;;;;;;;;;;;;;;;;;5073051;28;20304;-69
2021/09/17 02:23:10;;;;;;;;;;;;;;;;;;5073677;28;19930;-64
2021/09/17 02:25:37;;;;;;;;;;;;;;;;;;5073833;28;19929;-64
2021/09/17 02:28:04;;;;;;;;;;;;;;;;;;5073507;28;19925;-63
2021/09/17 02:30:31;;;;;;;;;;;;;;;;;;5073631;28;19931;-63
2021/09/17 02:32:58;;;;;;;;;;;;;;;;;;5073267;28;19934;-63
2021/09/17 02:35:25;;;;;;;;;;;;;;;;;;5073752;28;20300;-63
2021/09/17 02:37:52;;;;;;;;;;;;;;;;;;5073423;28;19925;-63
2021/09/17 02:40:19;;;;;;;;;;;;;;;;;;5072777;28;19924;-63
2021/09/17 02:42:46;;;;;;;;;;;;;;;;;;5072957;28;19924;-63
2021/09/17 02:45:13;;;;;;;;;;;;;;;;;;5073301;28;19924;-63
2021/09/17 02:47:40;;;;;;;;;;;;;;;;;;5073127;28;19925;-63
2021/09/17 02:50:07;;;;;;;;;;;;;;;;;;5072768;28;19925;-64
2021/09/17 02:52:34;;;;;;;;;;;;;;;;;;5072938;28;19924;-64
2021/09/17 02:55:01;;;;;;;;;;;;;;;;;;5073170;28;19930;-63
2021/09/17 02:57:28;;;;;;;;;;;;;;;;;;5072807;28;20384;-64
2021/09/17 02:59:55;;;;;;;;;;;;;;;;;;5072178;28;19930;-64
2021/09/17 03:02:22;;;;;;;;;;;;;;;;;;5072834;28;19925;-63
2021/09/17 03:04:49;;;;;;;;;;;;;;;;;;5072883;28;19925;-63
2021/09/17 03:07:16;;;;;;;;;;;;;;;;;;5072575;28;19925;-65
2021/09/17 03:09:43;;;;;;;;;;;;;;;;;;5072622;28;19928;-64
2021/09/17 03:12:10;;;;;;;;;;;;;;;;;;5072427;28;19940;-64
2021/09/17 03:14:36;;;;;;;;;;;;;;;;;;5072363;28;19924;-64
2021/09/17 03:17:03;;;;;;;;;;;;;;;;;;5065908;28;19931;-64
2021/09/17 03:19:30;;;;;;;;;;;;;;;;;;5071808;28;19935;-64
2021/09/17 03:22:00;;;;;;;;;;;;;;;;;;5071529;28;19928;-65
2021/09/17 03:24:27;;;;;;;;;;;;;;;;;;5072328;28;19924;-64
2021/09/17 03:26:54;;;;;;;;;;;;;;;;;;5065893;28;20319;-64
2021/09/17 03:29:20;;;;;;;;;;;;;;;;;;5071958;28;19928;-64
2021/09/17 03:31:47;;;;;;;;;;;;;;;;;;5072613;28;19928;-64
2021/09/17 03:34:14;;;;;;;;;;;;;;;;;;5072132;28;19924;-64
2021/09/17 03:36:42;;;;;;;;;;;;;;;;;;5072134;28;19932;-64
2021/09/17 03:39:09;;;;;;;;;;;;;;;;;;5072291;28;19974;-65
2021/09/17 03:41:36;;;;;;;;;;;;;;;;;;5072248;28;19931;-64
2021/09/17 03:44:03;;;;;;;;;;;;;;;;;;5106412;22;20391;-71
2021/09/17 03:46:30;;;;;;;;;;;;;;;;;;5095333;28;20010;-68
2021/09/17 03:48:57;;;;;;;;;;;;;;;;;;5094749;28;19977;-70
2021/09/17 03:51:24;;;;;;;;;;;;;;;;;;5094719;28;20026;-72
2021/09/17 03:53:51;;;;;;;;;;;;;;;;;;5094726;28;19924;-71
2021/09/17 03:56:18;;;;;;;;;;;;;;;;;;5094081;28;19953;-71
2021/09/17 03:58:45;;;;;;;;;;;;;;;;;;5094317;28;20387;-70
2021/09/17 04:01:12;;;;;;;;;;;;;;;;;;5094461;28;19924;-71
2021/09/17 04:03:39;;;;;;;;;;;;;;;;;;5094508;28;19924;-70
2021/09/17 04:06:06;;;;;;;;;;;;;;;;;;5094775;28;19950;-70
2021/09/17 04:08:33;;;;;;;;;;;;;;;;;;5094808;28;20027;-68
2021/09/17 04:11:00;;;;;;;;;;;;;;;;;;5095015;28;19928;-70
2021/09/17 04:13:27;;;;;;;;;;;;;;;;;;5094540;28;19934;-70
2021/09/17 04:15:54;;;;;;;;;;;;;;;;;;5094843;28;19928;-70
2021/09/17 04:18:21;;;;;;;;;;;;;;;;;;5094896;28;19970;-70
2021/09/17 04:20:48;;;;;;;;;;;;;;;;;;5092009;28;19995;-70
2021/09/17 04:23:15;;;;;;;;;;;;;;;;;;5100377;28;19985;-71
2021/09/17 04:25:42;;;;;;;;;;;;;;;;;;5096401;28;19935;-71
2021/09/17 04:28:09;;;;;;;;;;;;;;;;;;5094131;28;20441;-70
2021/09/17 04:30:36;;;;;;;;;;;;;;;;;;5093995;28;19978;-70
2021/09/17 04:33:03;;;;;;;;;;;;;;;;;;5093664;28;19924;-69
2021/09/17 04:35:30;;;;;;;;;;;;;;;;;;5094174;28;19924;-74
2021/09/17 04:37:58;;;;;;;;;;;;;;;;;;5094047;28;20246;-70
2021/09/17 04:40:25;;;;;;;;;;;;;;;;;;5094189;28;20008;-71
2021/09/17 04:42:52;;;;;;;;;;;;;;;;;;5093710;28;19924;-71
2021/09/17 04:45:19;;;;;;;;;;;;;;;;;;5094814;28;19984;-69
2021/09/17 04:47:46;;;;;;;;;;;;;;;;;;5093783;28;19928;-70
2021/09/17 04:50:13;;;;;;;;;;;;;;;;;;5091437;28;19924;-70
2021/09/17 04:52:40;;;;;;;;;;;;;;;;;;5094026;28;19928;-69
2021/09/17 04:55:07;;;;;;;;;;;;;;;;;;5093718;28;19928;-70
2021/09/17 04:57:34;;;;;;;;;;;;;;;;;;5094938;28;19925;-70
2021/09/17 05:00:01;;;;;;;;;;;;;;;;;;5098235;28;19974;-70
2021/09/17 05:02:28;;;;;;;;;;;;;;;;;;5095818;28;19950;-68
2021/09/17 05:04:55;;;;;;;;;;;;;;;;;;5093528;28;19967;-70
2021/09/17 05:07:22;;;;;;;;;;;;;;;;;;5093678;28;20287;-69
2021/09/17 05:09:49;;;;;;;;;;;;;;;;;;5093821;28;19959;-70
2021/09/17 05:12:15;;;;;;;;;;;;;;;;;;5103899;28;20454;-70
2021/09/17 05:14:42;;;;;;;;;;;;;;;;;;5102566;28;19924;-69
2021/09/17 05:17:09;;;;;;;;;;;;;;;;;;5094322;28;19924;-71
2021/09/17 05:19:36;;;;;;;;;;;;;;;;;;5092537;28;19928;-70
2021/09/17 05:22:03;;;;;;;;;;;;;;;;;;5091253;28;19924;-70
2021/09/17 05:24:30;;;;;;;;;;;;;;;;;;5091991;28;19931;-70
2021/09/17 05:26:57;;;;;;;;;;;;;;;;;;5091804;28;19924;-70
2021/09/17 05:29:24;;;;;;;;;;;;;;;;;;5092027;28;19931;-71
2021/09/17 05:31:51;;;;;;;;;;;;;;;;;;5091927;28;20179;-71
2021/09/17 05:34:18;;;;;;;;;;;;;;;;;;5092383;28;19928;-70
2021/09/17 05:36:45;;;;;;;;;;;;;;;;;;5092373;28;19939;-70
2021/09/17 05:39:12;;;;;;;;;;;;;;;;;;5091454;28;19931;-70
2021/09/17 05:41:39;;;;;;;;;;;;;;;;;;5091771;28;20307;-69
2021/09/17 05:44:06;;;;;;;;;;;;;;;;;;5091436;28;19946;-70
2021/09/17 05:46:35;;;;;;;;;;;;;;;;;;5094587;28;21684;-69
2021/09/17 05:49:02;;;;;;;;;;;;;;;;;;5095974;28;20380;-71
2021/09/17 05:51:28;;;;;;;;;;;;;;;;;;5094936;28;19928;-70
2021/09/17 05:53:55;;;;;;;;;;;;;;;;;;5095470;28;19924;-70
2021/09/17 05:56:22;;;;;;;;;;;;;;;;;;5095254;28;19931;-69
2021/09/17 05:58:49;;;;;;;;;;;;;;;;;;5098054;28;20295;-70
2021/09/17 06:01:16;;;;;;;;;;;;;;;;;;5098535;28;19947;-70
2021/09/17 06:03:43;;;;;;;;;;;;;;;;;;5095557;28;19931;-70
2021/09/17 06:06:12;;;;;;;;;;;;;;;;;;5088244;28;20478;-69
2021/09/17 06:08:39;;;;;;;;;;;;;;;;;;5095326;28;19925;-69
2021/09/17 06:11:06;;;;;;;;;;;;;;;;;;5094807;28;19970;-70
2021/09/17 06:13:33;;;;;;;;;;;;;;;;;;5094954;28;19924;-70
2021/09/17 06:16:00;;;;;;;;;;;;;;;;;;5088810;28;20386;-71
2021/09/17 06:18:27;;;;;;;;;;;;;;;;;;5094540;28;19924;-69
2021/09/17 06:20:55;;;;;;;;;;;;;;;;;;5096249;28;20011;-70
2021/09/17 06:23:22;;;;;;;;;;;;;;;;;;5098993;28;19924;-70
2021/09/17 06:25:49;;;;;;;;;;;;;;;;;;5098509;28;20310;-70
2021/09/17 06:28:16;;;;;;;;;;;;;;;;;;5098068;28;19930;-70
2021/09/17 06:30:43;;;;;;;;;;;;;;;;;;5097783;28;19924;-70
2021/09/17 06:33:10;;;;;;;;;;;;;;;;;;5098340;28;19936;-70
2021/09/17 06:35:37;;;;;;;;;;;;;;;;;;5099128;28;19924;-71
2021/09/17 06:38:04;;;;;;;;;;;;;;;;;;5099150;28;20384;-70
2021/09/17 06:40:31;;;;;;;;;;;;;;;;;;5098272;28;20296;-69
2021/09/17 06:42:58;;;;;;;;;;;;;;;;;;5101044;28;20148;-70
2021/09/17 06:45:25;;;;;;;;;;;;;;;;;;5100931;28;19930;-70
2021/09/17 06:47:53;;;;;;;;;;;;;;;;;;5101578;28;19930;-70
2021/09/17 06:50:20;;;;;;;;;;;;;;;;;;5100499;28;19924;-70
2021/09/17 06:52:49;;;;;;;;;;;;;;;;;;5101444;28;19930;-70
2021/09/17 06:55:16;;;;;;;;;;;;;;;;;;5100472;28;19924;-71
2021/09/17 06:57:43;;;;;;;;;;;;;;;;;;5099316;28;19924;-69
2021/09/17 07:00:10;;;;;;;;;;;;;;;;;;5097069;28;19924;-71
2021/09/17 07:02:37;;;;;;;;;;;;;;;;;;5096801;28;19928;-70
2021/09/17 07:05:03;;;;;;;;;;;;;;;;;;5096499;28;20307;-70
2021/09/17 07:07:31;;;;;;;;;;;;;;;;;;5095235;28;19924;-70
2021/09/17 07:09:58;;;;;;;;;;;;;;;;;;5090794;28;19924;-70
2021/09/17 07:12:25;;;;;;;;;;;;;;;;;;5094654;28;19931;-70
2021/09/17 07:14:52;;;;;;;;;;;;;;;;;;5095290;28;19946;-70
2021/09/17 07:17:18;;;;;;;;;;;;;;;;;;5094940;28;19983;-70
2021/09/17 07:19:45;;;;;;;;;;;;;;;;;;5094496;28;19931;-69
2021/09/17 07:22:12;;;;;;;;;;;;;;;;;;5095287;28;20397;-70
2021/09/17 07:24:39;;;;;;;;;;;;;;;;;;5094673;28;19971;-70
2021/09/17 07:27:06;;;;;;;;;;;;;;;;;;5096169;28;19924;-70
2021/09/17 07:29:33;;;;;;;;;;;;;;;;;;5095522;28;19930;-70
2021/09/17 07:32:00;;;;;;;;;;;;;;;;;;5094967;28;19924;-70
2021/09/17 07:34:28;;;;;;;;;;;;;;;;;;5093939;28;19924;-70
2021/09/17 07:36:55;;;;;;;;;;;;;;;;;;5094036;28;19924;-70
2021/09/17 07:39:22;;;;;;;;;;;;;;;;;;5094111;28;19931;-69
2021/09/17 07:41:49;;;;;;;;;;;;;;;;;;5093568;28;20272;-71
2021/09/17 07:44:16;;;;;;;;;;;;;;;;;;5093627;28;19924;-70
2021/09/17 07:46:43;;;;;;;;;;;;;;;;;;5093717;28;19928;-70
2021/09/17 07:49:10;;;;;;;;;;;;;;;;;;5093572;28;19955;-70
2021/09/17 07:51:37;;;;;;;;;;;;;;;;;;5092839;28;19928;-71
2021/09/17 07:54:04;;;;;;;;;;;;;;;;;;5093598;28;20015;-70
2021/09/17 07:56:31;;;;;;;;;;;;;;;;;;5093106;28;19924;-67
2021/09/17 07:58:58;;;;;;;;;;;;;;;;;;5093134;28;19939;-71
2021/09/17 08:01:25;;;;;;;;;;;;;;;;;;5092572;28;19935;-70
2021/09/17 08:03:52;;;;;;;;;;;;;;;;;;5092638;28;20273;-71
2021/09/17 08:06:19;;;;;;;;;;;;;;;;;;5093539;28;20026;-70
2021/09/17 08:08:46;;;;;;;;;;;;;;;;;;5092510;28;19924;-71
2021/09/17 08:11:13;;;;;;;;;;;;;;;;;;5092920;28;20402;-70
2021/09/17 08:13:40;;;;;;;;;;;;;;;;;;5092503;28;20018;-70
2021/09/17 08:16:07;;;;;;;;;;;;;;;;;;5093048;28;19931;-70
2021/09/17 08:18:34;;;;;;;;;;;;;;;;;;5092838;28;19924;-70
2021/09/17 08:21:01;;;;;;;;;;;;;;;;;;5092610;28;19931;-70
2021/09/17 08:23:28;;;;;;;;;;;;;;;;;;5091990;28;19928;-70
2021/09/17 08:25:55;;;;;;;;;;;;;;;;;;5091541;28;19924;-70
2021/09/17 08:28:22;;;;;;;;;;;;;;;;;;5091482;28;19928;-70
2021/09/17 08:30:49;;;;;;;;;;;;;;;;;;5090963;28;20426;-71
2021/09/17 08:33:16;;;;;;;;;;;;;;;;;;5089416;28;19974;-70
2021/09/17 08:35:43;;;;;;;;;;;;;;;;;;5091506;28;19970;-70
2021/09/17 08:38:10;;;;;;;;;;;;;;;;;;5091542;28;19924;-70
2021/09/17 08:40:37;;;;;;;;;;;;;;;;;;5091261;28;19931;-71
2021/09/17 08:43:04;;;;;;;;;;;;;;;;;;5091169;28;19974;-71
2021/09/17 08:45:31;;;;;;;;;;;;;;;;;;5091614;28;20337;-71
2021/09/17 08:47:58;;;;;;;;;;;;;;;;;;5091454;28;19939;-70
2021/09/17 08:50:25;;;;;;;;;;;;;;;;;;5091254;28;19924;-70
2021/09/17 08:52:52;;;;;;;;;;;;;;;;;;5091428;28;20015;-70
2021/09/17 08:55:19;;;;;;;;;;;;;;;;;;5084914;28;19924;-70
2021/09/17 08:57:46;;;;;;;;;;;;;;;;;;5091130;28;19924;-71
2021/09/17 09:00:13;;;;;;;;;;;;;;;;;;5090631;28;20387;-71
2021/09/17 09:02:40;;;;;;;;;;;;;;;;;;5091292;28;19924;-71
2021/09/17 09:05:07;;;;;;;;;;;;;;;;;;5091377;28;19935;-69
2021/09/17 09:07:35;;;;;;;;;;;;;;;;;;5091293;28;19924;-70
2021/09/17 09:10:02;;;;;;;;;;;;;;;;;;5091151;28;19970;-72
2021/09/17 09:12:29;;;;;;;;;;;;;;;;;;5091250;28;20295;-68
2021/09/17 09:14:56;;;;;;;;;;;;;;;;;;5090970;28;19924;-72
2021/09/17 09:17:23;;;;;;;;;;;;;;;;;;5091251;28;19930;-69
2021/09/17 09:19:50;;;;;;;;;;;;;;;;;;5092523;28;19928;-69
2021/09/17 09:22:17;;;;;;;;;;;;;;;;;;5095648;28;19967;-70
2021/09/17 09:24:44;;;;;;;;;;;;;;;;;;5095607;28;19924;-70
2021/09/17 09:27:11;;;;;;;;;;;;;;;;;;5094792;28;19963;-70
2021/09/17 09:29:38;;;;;;;;;;;;;;;;;;5094648;28;20410;-70
2021/09/17 09:32:05;;;;;;;;;;;;;;;;;;5094454;28;19924;-70
2021/09/17 09:34:32;;;;;;;;;;;;;;;;;;5094921;28;19928;-70
2021/09/17 09:36:59;;;;;;;;;;;;;;;;;;5094726;28;20302;-69
2021/09/17 09:39:26;;;;;;;;;;;;;;;;;;5095080;28;19924;-70
2021/09/17 09:44:33;;;;;;;;;;;;;;;;;;5069997;28;19924;-66
2021/09/17 09:47:02;;;;;;;;;;;;;;;;;;5070856;28;20281;-66
2021/09/17 09:49:29;;;;;;;;;;;;;;;;;;5067688;28;19928;-66
2021/09/17 09:51:56;;;;;;;;;;;;;;;;;;5069643;28;19932;-66
2021/09/17 09:54:24;;;;;;;;;;;;;;;;;;5051575;28;19925;-66
2021/09/17 09:56:51;;;;;;;;;;;;;;;;;;5051209;28;20399;-65
2021/09/17 09:59:19;;;;;;;;;;;;;;;;;;5051680;28;19929;-66
2021/09/17 10:01:46;;;;;;;;;;;;;;;;;;5050164;28;20300;-66
2021/09/17 10:04:13;;;;;;;;;;;;;;;;;;5051670;28;19947;-66
2021/09/17 10:06:40;;;;;;;;;;;;;;;;;;5051096;28;20391;-66
2021/09/17 10:09:06;;;;;;;;;;;;;;;;;;5051531;28;19932;-66
2021/09/17 10:11:33;;;;;;;;;;;;;;;;;;5048188;28;19932;-66
2021/09/17 10:14:00;;;;;;;;;;;;;;;;;;5051484;28;19925;-66
2021/09/17 10:16:27;;;;;;;;;;;;;;;;;;5051347;28;19925;-66
2021/09/17 10:18:54;;;;;;;;;;;;;;;;;;5052022;28;19925;-66
2021/09/17 10:21:21;;;;;;;;;;;;;;;;;;5047488;28;20467;-67
2021/09/17 10:23:48;;;;;;;;;;;;;;;;;;5050971;28;20112;-67
2021/09/17 10:26:15;;;;;;;;;;;;;;;;;;5051365;28;19925;-67
2021/09/17 10:28:42;;;;;;;;;;;;;;;;;;5052238;28;19980;-67
2021/09/17 10:31:09;;;;;;;;;;;;;;;;;;5047307;28;19928;-67
2021/09/17 10:33:36;;;;;;;;;;;;;;;;;;5049412;28;20303;-67
2021/09/17 10:36:03;;;;;;;;;;;;;;;;;;5050037;28;19931;-67
2021/09/17 10:38:30;;;;;;;;;;;;;;;;;;5051041;28;19929;-67
2021/09/17 10:40:58;;;;;;;;;;;;;;;;;;5049270;28;19947;-67
2021/09/17 10:43:24;;;;;;;;;;;;;;;;;;5050044;28;19932;-67
2021/09/17 10:45:51;;;;;;;;;;;;;;;;;;5049987;28;19925;-67
2021/09/17 10:48:18;;;;;;;;;;;;;;;;;;5050242;28;19979;-67
2021/09/17 10:50:45;;;;;;;;;;;;;;;;;;5046357;28;19947;-67
2021/09/17 10:53:12;;;;;;;;;;;;;;;;;;5049568;28;20292;-67
2021/09/17 10:55:39;;;;;;;;;;;;;;;;;;5050154;28;19925;-67
2021/09/17 10:58:06;;;;;;;;;;;;;;;;;;5050287;28;19924;-67
2021/09/17 11:00:33;;;;;;;;;;;;;;;;;;5047908;28;20387;-68
2021/09/17 11:03:00;;;;;;;;;;;;;;;;;;5049227;28;19937;-67
2021/09/17 11:05:27;;;;;;;;;;;;;;;;;;5045946;28;19929;-68
2021/09/17 11:07:54;;;;;;;;;;;;;;;;;;5049515;28;19947;-67
2021/09/17 11:10:21;;;;;;;;;;;;;;;;;;5047686;28;19925;-67
2021/09/17 11:12:47;;;;;;;;;;;;;;;;;;5048372;28;19935;-67
2021/09/17 11:15:14;;;;;;;;;;;;;;;;;;5049735;28;19925;-67
2021/09/17 11:17:41;;;;;;;;;;;;;;;;;;5049123;28;19924;-67
2021/09/17 11:20:08;;;;;;;;;;;;;;;;;;5047969;28;19925;-67
2021/09/17 11:22:35;;;;;;;;;;;;;;;;;;5047725;28;20407;-67
2021/09/17 11:25:02;;;;;;;;;;;;;;;;;;5049196;28;19929;-66
2021/09/17 11:27:29;;;;;;;;;;;;;;;;;;5049206;28;19935;-66
2021/09/17 11:29:56;;;;;;;;;;;;;;;;;;5047727;28;19925;-65
2021/09/17 11:32:23;;;;;;;;;;;;;;;;;;5047014;28;19933;-65
2021/09/17 11:34:50;;;;;;;;;;;;;;;;;;5048840;28;20411;-66
2021/09/17 11:37:17;;;;;;;;;;;;;;;;;;5048971;28;19928;-66
2021/09/17 11:39:44;;;;;;;;;;;;;;;;;;5048226;28;19931;-65
2021/09/17 11:42:12;;;;;;;;;;;;;;;;;;5046292;28;20283;-68
2021/09/17 11:44:40;;;;;;;;;;;;;;;;;;5049166;28;19925;-68
2021/09/17 11:47:06;;;;;;;;;;;;;;;;;;5048477;28;19935;-65
2021/09/17 11:49:33;;;;;;;;;;;;;;;;;;5047935;28;19925;-65
2021/09/17 11:52:00;;;;;;;;;;;;;;;;;;5046611;28;19948;-68
2021/09/17 11:54:27;;;;;;;;;;;;;;;;;;5049097;28;19978;-68
2021/09/17 11:56:54;;;;;;;;;;;;;;;;;;5048316;28;19925;-66
2021/09/17 11:59:21;;;;;;;;;;;;;;;;;;5047639;28;19929;-67
2021/09/17 12:01:48;;;;;;;;;;;;;;;;;;5045828;28;19936;-67
2021/09/17 12:04:15;;;;;;;;;;;;;;;;;;5048804;28;19947;-67
2021/09/17 12:06:42;;;;;;;;;;;;;;;;;;5048588;28;19933;-67
2021/09/17 12:09:09;;;;;;;;;;;;;;;;;;5047860;28;19929;-67
2021/09/17 12:11:36;;;;;;;;;;;;;;;;;;5045705;28;19931;-67
2021/09/17 12:14:04;;;;;;;;;;;;;;;;;;5047947;28;19924;-67
2021/09/17 12:16:31;;;;;;;;;;;;;;;;;;5048315;28;19982;-67
2021/09/17 12:18:58;;;;;;;;;;;;;;;;;;5045810;28;20309;-67
2021/09/17 12:21:25;;;;;;;;;;;;;;;;;;5045222;28;19925;-69
2021/09/17 12:23:53;;;;;;;;;;;;;;;;;;5048071;28;19931;-67
2021/09/17 12:26:20;;;;;;;;;;;;;;;;;;5048358;28;19928;-67
2021/09/17 12:28:47;;;;;;;;;;;;;;;;;;5048051;28;19928;-66
2021/09/17 12:31:13;;;;;;;;;;;;;;;;;;5047977;28;19925;-66
2021/09/17 12:33:40;;;;;;;;;;;;;;;;;;5048323;28;19936;-67
2021/09/17 12:36:07;;;;;;;;;;;;;;;;;;5048159;28;20308;-67
2021/09/17 12:38:34;;;;;;;;;;;;;;;;;;5048233;28;20304;-66
2021/09/17 12:41:01;;;;;;;;;;;;;;;;;;5044327;28;19925;-66
2021/09/17 12:43:28;;;;;;;;;;;;;;;;;;5047734;28;19935;-67
2021/09/17 12:45:55;;;;;;;;;;;;;;;;;;5048251;28;19925;-67
2021/09/17 12:48:23;;;;;;;;;;;;;;;;;;5047774;28;19931;-67
2021/09/17 12:50:50;;;;;;;;;;;;;;;;;;5043645;28;19933;-67
2021/09/17 12:53:18;;;;;;;;;;;;;;;;;;5041381;28;20293;-67
2021/09/17 12:55:45;;;;;;;;;;;;;;;;;;5051883;28;19929;-67
2021/09/17 12:58:14;;;;;;;;;;;;;;;;;;5051953;28;19929;-67
2021/09/17 13:00:41;;;;;;;;;;;;;;;;;;5048355;28;19932;-67
2021/09/17 13:03:08;;;;;;;;;;;;;;;;;;5052105;28;20351;-67
2021/09/17 13:05:35;;;;;;;;;;;;;;;;;;5051754;28;19925;-67
2021/09/17 13:08:02;;;;;;;;;;;;;;;;;;5051870;28;19967;-67
2021/09/17 13:10:29;;;;;;;;;;;;;;;;;;5048334;28;20019;-66
2021/09/17 13:12:56;;;;;;;;;;;;;;;;;;5052048;28;19932;-69
2021/09/17 13:15:23;;;;;;;;;;;;;;;;;;5051979;28;19936;-65
2021/09/17 13:17:50;;;;;;;;;;;;;;;;;;5051629;28;20419;-66
2021/09/17 13:20:17;;;;;;;;;;;;;;;;;;5048519;28;19925;-67
2021/09/17 13:22:44;;;;;;;;;;;;;;;;;;5051350;28;19951;-66
2021/09/17 13:25:11;;;;;;;;;;;;;;;;;;5051855;28;20300;-67
2021/09/17 13:27:38;;;;;;;;;;;;;;;;;;5051722;28;19931;-67
2021/09/17 13:30:05;;;;;;;;;;;;;;;;;;5048709;28;19972;-66
2021/09/17 13:32:32;;;;;;;;;;;;;;;;;;5050862;28;19932;-66
2021/09/17 13:35:00;;;;;;;;;;;;;;;;;;5050623;28;20316;-69
2021/09/17 13:37:27;;;;;;;;;;;;;;;;;;5051064;28;19932;-66
2021/09/17 13:39:54;;;;;;;;;;;;;;;;;;5049937;28;19925;-67
2021/09/17 13:42:21;;;;;;;;;;;;;;;;;;5051984;28;19928;-66
2021/09/17 13:44:48;;;;;;;;;;;;;;;;;;5051225;28;19925;-68
2021/09/17 13:47:15;;;;;;;;;;;;;;;;;;5051242;28;19924;-67
2021/09/17 13:49:41;;;;;;;;;;;;;;;;;;5050787;28;19924;-67
2021/09/17 13:52:08;;;;;;;;;;;;;;;;;;5050825;28;19939;-67
2021/09/17 13:54:36;;;;;;;;;;;;;;;;;;5051112;28;19931;-67
2021/09/17 13:57:03;;;;;;;;;;;;;;;;;;5050988;28;19940;-66
2021/09/17 13:59:31;;;;;;;;;;;;;;;;;;5050376;28;19932;-67
2021/09/17 14:01:57;;;;;;;;;;;;;;;;;;5050055;28;19925;-67
2021/09/17 14:04:24;;;;;;;;;;;;;;;;;;5050626;28;19924;-66
2021/09/17 14:06:51;;;;;;;;;;;;;;;;;;5050127;28;19929;-66
2021/09/17 14:09:18;;;;;;;;;;;;;;;;;;5048899;28;19931;-66
2021/09/17 14:11:45;;;;;;;;;;;;;;;;;;5049131;28;19931;-68
2021/09/17 14:14:12;;;;;;;;;;;;;;;;;;5050846;28;19932;-69
2021/09/17 14:16:39;;;;;;;;;;;;;;;;;;5050452;28;19925;-67
2021/09/17 14:19:06;;;;;;;;;;;;;;;;;;5048753;28;19979;-66
2021/09/17 14:21:33;;;;;;;;;;;;;;;;;;5048640;28;19931;-68
2021/09/17 14:24:00;;;;;;;;;;;;;;;;;;5050437;28;19928;-66
2021/09/17 14:26:27;;;;;;;;;;;;;;;;;;5050421;28;19924;-68
2021/09/17 14:28:54;;;;;;;;;;;;;;;;;;5052391;28;19925;-68
2021/09/17 14:31:21;;;;;;;;;;;;;;;;;;5048139;28;19929;-66
2021/09/17 14:33:48;;;;;;;;;;;;;;;;;;5050201;28;20426;-67
2021/09/17 14:36:15;;;;;;;;;;;;;;;;;;5050498;28;19929;-67
2021/09/17 14:38:42;;;;;;;;;;;;;;;;;;5050059;28;19987;-67
2021/09/17 14:41:09;;;;;;;;;;;;;;;;;;5050200;28;20019;-66
2021/09/17 14:43:36;;;;;;;;;;;;;;;;;;5049857;28;20377;-66
2021/09/17 14:46:03;;;;;;;;;;;;;;;;;;5049821;28;19935;-67
2021/09/17 14:48:30;;;;;;;;;;;;;;;;;;5046243;28;19935;-68
2021/09/17 14:50:57;;;;;;;;;;;;;;;;;;5046764;28;19926;-68
2021/09/17 14:53:24;;;;;;;;;;;;;;;;;;5049832;28;19931;-69
2021/09/17 14:55:53;;;;;;;;;;;;;;;;;;5049657;28;19931;-67
2021/09/17 14:58:20;;;;;;;;;;;;;;;;;;5052389;28;19929;-66
2021/09/17 15:00:47;;;;;;;;;;;;;;;;;;5046693;28;19925;-67
2021/09/17 15:03:14;;;;;;;;;;;;;;;;;;5049636;28;20393;-66
2021/09/17 15:05:41;;;;;;;;;;;;;;;;;;5050041;28;19979;-67
2021/09/17 15:08:08;;;;;;;;;;;;;;;;;;5048776;28;20032;-67
2021/09/17 15:10:35;;;;;;;;;;;;;;;;;;5047114;28;19925;-66
2021/09/17 15:13:02;;;;;;;;;;;;;;;;;;5049166;28;19931;-66
2021/09/17 15:15:28;;;;;;;;;;;;;;;;;;5049420;28;19929;-67
2021/09/17 15:17:55;;;;;;;;;;;;;;;;;;5048255;28;20386;-67
2021/09/17 15:20:22;;;;;;;;;;;;;;;;;;5045994;28;20436;-66
2021/09/17 15:22:49;;;;;;;;;;;;;;;;;;5049096;28;20019;-66
2021/09/17 15:25:17;;;;;;;;;;;;;;;;;;5049369;28;20351;-70
2021/09/17 15:27:44;;;;;;;;;;;;;;;;;;5049081;28;19975;-67
2021/09/17 15:30:11;;;;;;;;;;;;;;;;;;5048760;28;19925;-66
2021/09/17 15:32:38;;;;;;;;;;;;;;;;;;5049369;28;20134;-67
2021/09/17 15:35:05;;;;;;;;;;;;;;;;;;5048880;28;19924;-66
2021/09/17 15:37:32;;;;;;;;;;;;;;;;;;5049046;28;20308;-68
2021/09/17 15:39:59;;;;;;;;;;;;;;;;;;5045376;28;19947;-66
2021/09/17 15:42:26;;;;;;;;;;;;;;;;;;5042354;28;19925;-67
2021/09/17 15:44:53;;;;;;;;;;;;;;;;;;5049218;28;19931;-70
2021/09/17 15:47:20;;;;;;;;;;;;;;;;;;5049137;28;20326;-66
2021/09/17 15:49:47;;;;;;;;;;;;;;;;;;5045396;28;20388;-65
2021/09/17 15:52:14;;;;;;;;;;;;;;;;;;5048873;28;19931;-67
2021/09/17 15:54:41;;;;;;;;;;;;;;;;;;5048812;28;19932;-66
2021/09/17 15:57:08;;;;;;;;;;;;;;;;;;5048799;28;20291;-67
2021/09/17 15:59:35;;;;;;;;;;;;;;;;;;5045643;28;19932;-66
2021/09/17 16:02:02;;;;;;;;;;;;;;;;;;5048530;28;19947;-67
2021/09/17 16:04:29;;;;;;;;;;;;;;;;;;5047301;28;19925;-67
2021/09/17 16:06:56;;;;;;;;;;;;;;;;;;5048643;28;19931;-67
2021/09/17 16:09:23;;;;;;;;;;;;;;;;;;5045289;28;19925;-67
2021/09/17 16:11:50;;;;;;;;;;;;;;;;;;5048220;28;19925;-67
2021/09/17 16:14:17;;;;;;;;;;;;;;;;;;5048292;28;20020;-67
2021/09/17 16:16:44;;;;;;;;;;;;;;;;;;5048601;28;19925;-67
2021/09/17 16:19:11;;;;;;;;;;;;;;;;;;5045687;28;20012;-68
2021/09/17 16:21:38;;;;;;;;;;;;;;;;;;5047690;28;19929;-66
2021/09/17 16:24:05;;;;;;;;;;;;;;;;;;5048294;28;20415;-67
2021/09/17 16:26:32;;;;;;;;;;;;;;;;;;5048238;28;19931;-67
2021/09/17 16:28:59;;;;;;;;;;;;;;;;;;5045947;28;20303;-68
2021/09/17 16:31:26;;;;;;;;;;;;;;;;;;5047099;28;20388;-66
2021/09/17 16:33:53;;;;;;;;;;;;;;;;;;5048280;28;20012;-67
2021/09/17 16:36:20;;;;;;;;;;;;;;;;;;5048210;28;19932;-68
2021/09/17 16:38:47;;;;;;;;;;;;;;;;;;5049324;28;20383;-67
2021/09/17 16:41:14;;;;;;;;;;;;;;;;;;5047195;28;20025;-68
2021/09/17 16:43:41;;;;;;;;;;;;;;;;;;5048245;28;20300;-67
2021/09/17 16:46:08;;;;;;;;;;;;;;;;;;5048299;28;19924;-67